KSCK/SCK METAR and TAF weather

Enter ICAO airport designator
Station Type Date Time Source
KSCK METAR 2020/04/03 06:55 UTC NOAA

KSCK 030655Z AUTO 27007KT 10SM CLR 10/04 A3006 RMK AO2 SLP177 T01000039


Station Type Date Time Source
KSCK Decoded METAR 2020/04/03 06:55 UTC NOAA

STOCKTON METROPOLITAN AIRPORT , CA, United States (KSCK) 37-54N 121-14W 10M
Apr 03, 2020 - 02:55 AM EDT / 2020.04.03 0655 UTC
Wind: from the W (270 degrees) at 8 MPH (7 KT):0
Visibility: 10 mile(s):0
Sky conditions: clear
Temperature: 50.0 F (10.0 C)
Dew Point: 39.0 F (3.9 C)
Relative Humidity: 65%
Pressure (altimeter): 30.06 in. Hg (1017 hPa)
ob: KSCK 030655Z AUTO 27007KT 10SM CLR 10/04 A3006 RMK AO2 SLP177 T01000039
cycle: 7

Station Type Date Time Source
KSCK TAF 2020/04/03 06:40 UTC NOAA

TAF KSCK 030537Z 0306/0406 26008KT P6SM SKC
FM031600 31007KT P6SM SCT250
FM040100 28010KT P6SM BKN250

Example: see airport list